Time;durP1;ratioP1;P1;durP2;ratioP2;P2;SDS_P1;SDS_P2;PMS_P1;PMS_P2;Temp;Humidity;BMP_temperature;BMP_pressure;BME280_temperature;BME280_humidity;BME280_pressure;Samples;Min_cycle;Max_cycle;Signal;HPM_P1;HPM_P2
2022/12/04 01:01:58;;;;;;;8.07;4.93;;;2.00;99.90;;;;;;5033290;27;3608605;-91
2022/12/04 01:04:31;;;;;;;14.60;5.13;;;1.80;99.90;;;;;;5154357;27;20239;-91
2022/12/04 01:07:03;;;;;;;12.53;5.23;;;1.70;99.90;;;;;;5156378;27;20235;-91
2022/12/04 01:09:36;;;;;;;8.57;5.13;;;1.70;99.90;;;;;;5139562;27;20257;-91
2022/12/04 01:12:07;;;;;;;14.53;5.43;;;1.70;99.90;;;;;;5129339;28;20193;-91
2022/12/04 01:14:40;;;;;;;9.13;5.03;;;1.60;99.90;;;;;;5130297;28;20198;-92
2022/12/04 01:17:13;;;;;;;11.03;4.70;;;1.60;99.90;;;;;;5119081;28;20214;-91
2022/12/04 01:19:44;;;;;;;9.00;4.07;;;1.50;99.90;;;;;;5129926;27;20201;-92
2022/12/04 01:22:16;;;;;;;11.47;4.47;;;1.50;99.90;;;;;;5137177;27;20202;-92
2022/12/04 01:24:48;;;;;;;8.37;4.03;;;1.50;99.90;;;;;;5107542;28;20198;-92
2022/12/04 01:27:19;;;;;;;9.53;3.73;;;1.50;99.90;;;;;;5119433;28;20326;-93
2022/12/04 01:29:50;;;;;;;12.80;5.63;;;1.40;99.90;;;;;;5136614;28;20217;-92
2022/12/04 01:32:30;;;;;;;9.93;4.70;;;1.40;99.90;;;;;;5145491;27;20221;-93
2022/12/04 01:35:01;;;;;;;13.13;5.27;;;1.40;99.90;;;;;;5124072;28;20555;-93
2022/12/04 01:37:33;;;;;;;8.00;4.77;;;1.30;99.90;;;;;;5108288;28;20232;-93
2022/12/04 01:40:09;;;;;;;9.90;5.47;;;1.30;99.90;;;;;;5129315;27;20285;-92
2022/12/04 01:42:40;;;;;;;12.17;5.20;;;1.20;99.90;;;;;;5123794;27;20227;-92
2022/12/04 01:45:38;;;;;;;21.33;6.73;;;1.20;99.90;;;;;;5135066;28;20652;-92
2022/12/04 01:48:19;;;;;;;18.87;6.03;;;1.10;99.90;;;;;;5117912;28;20226;-93
2022/12/04 01:50:54;;;;;;;18.53;7.60;;;1.10;99.90;;;;;;5141727;27;20874;-92
2022/12/04 01:53:26;;;;;;;11.67;5.57;;;1.10;99.90;;;;;;5155130;27;20613;-92
2022/12/04 01:55:57;;;;;;;12.67;4.70;;;1.10;99.90;;;;;;5141578;27;20669;-92
2022/12/04 01:58:33;;;;;;;10.53;4.60;;;1.10;99.90;;;;;;5134920;28;20206;-92
2022/12/04 02:01:07;;;;;;;6.23;4.13;;;1.10;99.90;;;;;;5127507;27;20203;-93
2022/12/04 02:03:41;;;;;;;5.27;3.80;;;1.10;99.90;;;;;;5104819;28;20319;-93
2022/12/04 02:06:14;;;;;;;6.57;3.17;;;1.10;99.90;;;;;;5101868;28;20206;-93
2022/12/04 02:08:47;;;;;;;5.07;3.37;;;1.10;99.90;;;;;;5101170;28;20239;-93
2022/12/04 02:11:28;;;;;;;5.80;3.47;;;1.10;99.90;;;;;;5102637;28;20634;-93
2022/12/04 02:14:13;;;;;;;5.80;3.37;;;1.10;99.90;;;;;;5121387;28;20217;-93
2022/12/04 02:16:52;;;;;;;7.33;3.70;;;1.20;99.90;;;;;;5130146;28;20263;-93
2022/12/04 02:19:49;;;;;;;6.13;3.80;;;1.20;99.90;;;;;;5128094;28;20210;-92
2022/12/04 02:22:36;;;;;;;6.73;3.83;;;1.10;99.90;;;;;;5129219;28;20259;-93
2022/12/04 02:25:22;;;;;;;5.83;3.70;;;1.10;99.90;;;;;;5112638;28;20205;-92
2022/12/04 02:28:06;;;;;;;6.23;3.47;;;1.10;99.90;;;;;;5122251;28;20202;-91
2022/12/04 02:30:41;;;;;;;8.53;4.47;;;1.10;99.90;;;;;;5120126;28;20214;-92
2022/12/04 02:33:21;;;;;;;5.43;3.67;;;1.00;99.90;;;;;;5133954;27;20226;-93
2022/12/04 02:35:58;;;;;;;6.80;4.60;;;1.00;99.90;;;;;;5139759;27;20175;-93
2022/12/04 02:38:37;;;;;;;6.63;3.70;;;1.00;99.90;;;;;;5108734;28;20217;-91
2022/12/04 02:41:12;;;;;;;6.30;4.27;;;0.90;99.90;;;;;;5118200;28;20191;-93
2022/12/04 02:43:53;;;;;;;4.80;3.70;;;0.90;99.90;;;;;;5150216;27;20224;-92
2022/12/04 02:46:28;;;;;;;6.73;4.37;;;0.90;99.90;;;;;;5160743;27;20185;-92
2022/12/04 02:49:05;;;;;;;11.57;4.30;;;0.80;99.90;;;;;;5125979;27;20187;-91
2022/12/04 02:51:41;;;;;;;6.07;4.07;;;0.80;99.90;;;;;;5112322;28;20290;-90
2022/12/04 02:54:23;;;;;;;6.03;3.87;;;0.80;99.90;;;;;;5114169;28;20222;-90
2022/12/04 02:56:58;;;;;;;6.83;4.00;;;0.70;99.90;;;;;;5136776;27;20206;-92
2022/12/04 02:59:37;;;;;;;5.03;3.70;;;0.70;99.90;;;;;;5138868;27;20194;-93
2022/12/04 03:02:15;;;;;;;5.90;3.80;;;0.60;99.90;;;;;;5134565;27;20202;-92
2022/12/04 03:04:50;;;;;;;6.27;3.80;;;0.60;99.90;;;;;;5136098;28;20237;-92
2022/12/04 03:07:28;;;;;;;8.67;4.07;;;0.60;99.90;;;;;;5132477;27;20627;-93
2022/12/04 03:10:04;;;;;;;5.13;3.50;;;0.50;99.90;;;;;;5109692;28;20202;-92
2022/12/04 03:12:43;;;;;;;5.23;3.70;;;0.50;99.90;;;;;;5123358;28;20234;-93
2022/12/04 03:15:27;;;;;;;4.03;3.13;;;0.40;99.90;;;;;;5122148;28;20238;-92
2022/12/04 03:18:02;;;;;;;9.97;3.33;;;0.40;99.90;;;;;;5121879;28;20273;-92
2022/12/04 03:20:38;;;;;;;3.93;2.97;;;0.30;99.90;;;;;;5122154;28;20527;-93
2022/12/04 03:23:16;;;;;;;3.67;3.00;;;0.30;99.90;;;;;;5119499;28;20284;-93
2022/12/04 03:25:56;;;;;;;5.17;3.30;;;0.30;99.90;;;;;;5120994;28;20241;-92
2022/12/04 03:28:35;;;;;;;4.50;3.60;;;0.20;99.90;;;;;;5121105;28;20274;-92
2022/12/04 03:31:10;;;;;;;7.63;3.90;;;0.10;99.90;;;;;;5109470;28;20238;-92
2022/12/04 03:33:45;;;;;;;5.23;3.90;;;0.20;99.90;;;;;;5124925;28;20229;-92
2022/12/04 03:36:23;;;;;;;6.77;3.67;;;0.20;99.90;;;;;;5117660;28;20189;-93
2022/12/04 03:39:00;;;;;;;4.27;3.70;;;0.10;99.90;;;;;;5126549;28;20231;-94
2022/12/04 03:41:46;;;;;;;8.33;4.03;;;0.20;99.90;;;;;;5112136;27;20206;-93
2022/12/04 03:44:24;;;;;;;5.40;3.30;;;0.20;99.90;;;;;;5126952;28;20645;-93
2022/12/04 03:47:06;;;;;;;6.43;3.90;;;0.10;99.90;;;;;;5128982;28;20786;-93
2022/12/04 03:49:44;;;;;;;10.07;3.67;;;0.10;99.90;;;;;;5128200;28;20190;-93
2022/12/04 03:52:22;;;;;;;5.57;3.43;;;0.00;99.90;;;;;;5127699;28;20242;-95
2022/12/04 03:55:03;;;;;;;5.30;4.00;;;0.00;99.90;;;;;;5127711;28;20209;-92
2022/12/04 03:57:43;;;;;;;4.40;3.57;;;0.00;99.90;;;;;;5125932;28;20217;-92
2022/12/04 04:00:19;;;;;;;5.23;3.90;;;0.00;99.90;;;;;;5122735;28;20209;-93
2022/12/04 04:02:57;;;;;;;11.03;5.20;;;0.00;99.90;;;;;;5125812;28;20225;-93
2022/12/04 04:05:30;;;;;;;8.00;6.17;;;-0.10;99.90;;;;;;5141510;27;20206;-93
2022/12/04 04:10:54;;;;;;;9.10;6.87;;;-0.10;99.90;;;;;;5125254;28;20206;-92
2022/12/04 04:25:27;;;;;;;14.30;7.77;;;-0.20;99.90;;;;;;5125704;28;20248;-93
2022/12/04 04:28:01;;;;;;;10.90;7.90;;;-0.20;99.90;;;;;;5125778;28;20254;-94
2022/12/04 04:30:37;;;;;;;12.43;7.20;;;-0.20;99.90;;;;;;5126641;28;20342;-93
2022/12/04 04:33:15;;;;;;;9.97;6.33;;;-0.20;99.90;;;;;;5125304;28;20399;-94
2022/12/04 04:35:59;;;;;;;8.00;6.20;;;-0.30;99.90;;;;;;5114199;28;20206;-93
2022/12/04 04:38:41;;;;;;;9.93;5.93;;;-0.30;99.90;;;;;;5127794;28;20244;-92
2022/12/04 04:41:20;;;;;;;8.90;5.80;;;-0.30;99.90;;;;;;5102778;28;20207;-93
2022/12/04 04:44:00;;;;;;;8.70;5.20;;;-0.30;99.90;;;;;;5117116;28;20206;-93
2022/12/04 04:46:36;;;;;;;7.43;5.30;;;-0.30;99.90;;;;;;5120104;28;20266;-93
2022/12/04 04:49:14;;;;;;;10.80;5.20;;;-0.30;99.90;;;;;;5132245;28;20205;-94
2022/12/04 04:51:48;;;;;;;10.50;5.83;;;-0.30;99.90;;;;;;5117985;27;20229;-92
2022/12/04 04:54:23;;;;;;;9.83;5.23;;;-0.30;99.90;;;;;;5123167;28;20232;-93
2022/12/04 04:57:00;;;;;;;9.50;5.60;;;-0.30;99.90;;;;;;5126669;28;20225;-93
2022/12/04 04:59:33;;;;;;;12.20;6.27;;;-0.30;99.90;;;;;;5110769;28;20270;-92
2022/12/04 05:02:07;;;;;;;11.60;7.10;;;-0.30;99.90;;;;;;5138709;28;20911;-94
2022/12/04 05:04:40;;;;;;;10.80;6.40;;;-0.30;99.90;;;;;;5131051;28;20205;-93
2022/12/04 05:07:15;;;;;;;11.00;7.07;;;-0.30;99.90;;;;;;5132789;28;20573;-94
2022/12/04 05:09:47;;;;;;;12.43;6.90;;;-0.30;99.90;;;;;;5090635;28;20309;-93
2022/12/04 05:12:22;;;;;;;11.00;7.70;;;-0.30;99.90;;;;;;5119693;28;20304;-93
2022/12/04 05:14:54;;;;;;;9.17;5.53;;;-0.30;99.90;;;;;;5119110;28;20269;-94
2022/12/04 05:17:27;;;;;;;10.63;5.90;;;-0.30;99.90;;;;;;5120112;28;20225;-93
2022/12/04 05:19:57;;;;;;;11.60;4.53;;;-0.30;99.90;;;;;;5107775;28;20302;-94
2022/12/04 05:22:32;;;;;;;9.27;6.37;;;-0.30;99.90;;;;;;5098098;28;20221;-93
2022/12/04 05:25:06;;;;;;;8.27;5.20;;;-0.30;99.90;;;;;;5112542;28;20628;-93
2022/12/04 05:27:37;;;;;;;9.87;5.23;;;-0.30;99.90;;;;;;5118793;28;20221;-93
2022/12/04 05:30:13;;;;;;;10.10;4.37;;;-0.30;99.90;;;;;;5119214;28;20206;-92
2022/12/04 05:32:45;;;;;;;9.20;4.07;;;-0.30;99.90;;;;;;5118506;28;20265;-94
2022/12/04 05:35:17;;;;;;;7.17;4.13;;;-0.30;99.90;;;;;;5120581;28;20223;-94
2022/12/04 05:37:52;;;;;;;7.33;4.30;;;-0.30;99.90;;;;;;5129801;27;20659;-94
2022/12/04 05:40:24;;;;;;;5.93;4.10;;;-0.30;99.90;;;;;;5125174;28;20204;-94
2022/12/04 05:42:58;;;;;;;6.53;3.60;;;-0.30;99.90;;;;;;5086065;28;20190;-93
2022/12/04 05:45:34;;;;;;;8.13;4.57;;;-0.30;99.90;;;;;;5088169;28;20211;-93
2022/12/04 05:48:06;;;;;;;7.30;3.97;;;-0.20;99.90;;;;;;5106808;28;20243;-94
2022/12/04 05:50:43;;;;;;;6.90;4.10;;;-0.30;99.90;;;;;;5127348;27;20227;-94
2022/12/04 05:53:18;;;;;;;6.50;3.70;;;-0.30;99.90;;;;;;5121283;28;20683;-94
2022/12/04 05:55:58;;;;;;;6.60;3.60;;;-0.20;99.90;;;;;;5110665;28;20210;-93
2022/12/04 05:58:30;;;;;;;6.33;3.97;;;-0.30;99.90;;;;;;5118562;28;20274;-93
2022/12/04 06:01:01;;;;;;;8.47;3.90;;;-0.30;99.90;;;;;;5115584;28;20531;-92
2022/12/04 06:03:34;;;;;;;8.97;4.40;;;-0.30;99.90;;;;;;5115533;28;20211;-90
2022/12/04 06:06:12;;;;;;;8.20;3.77;;;-0.30;99.90;;;;;;5113479;28;20198;-92
2022/12/04 06:08:59;;;;;;;9.13;3.93;;;-0.30;99.90;;;;;;5115475;28;20216;-92
2022/12/04 06:11:35;;;;;;;4.90;3.83;;;-0.30;99.90;;;;;;5118026;28;20207;-93
2022/12/04 06:14:19;;;;;;;6.60;4.20;;;-0.40;99.90;;;;;;5116906;28;20220;-92
2022/12/04 06:16:53;;;;;;;7.33;3.90;;;-0.40;99.90;;;;;;5122304;28;20213;-92
2022/12/04 06:19:25;;;;;;;7.43;4.07;;;-0.40;99.90;;;;;;5102240;28;20657;-92
2022/12/04 06:21:58;;;;;;;11.40;4.20;;;-0.30;99.90;;;;;;5120392;28;20202;-92
2022/12/04 06:24:33;;;;;;;10.53;4.33;;;-0.40;99.90;;;;;;5105079;28;20202;-94
2022/12/04 06:27:07;;;;;;;7.77;4.10;;;-0.40;99.90;;;;;;5117081;28;20201;-92
2022/12/04 06:29:58;;;;;;;5.33;3.77;;;-0.40;99.90;;;;;;5122641;27;20205;-93
2022/12/04 06:32:31;;;;;;;8.07;4.33;;;-0.40;99.90;;;;;;5101738;28;20283;-92
2022/12/04 06:35:05;;;;;;;5.83;3.60;;;-0.40;99.90;;;;;;5122035;27;20206;-92
2022/12/04 06:37:36;;;;;;;6.57;3.80;;;-0.40;99.90;;;;;;5117477;28;20250;-92
2022/12/04 06:40:12;;;;;;;5.83;3.60;;;-0.40;99.90;;;;;;5106620;28;20239;-92
2022/12/04 06:42:45;;;;;;;4.83;3.60;;;-0.40;99.90;;;;;;5106964;28;20230;-93
2022/12/04 06:45:16;;;;;;;5.47;3.90;;;-0.40;99.90;;;;;;5091727;28;20221;-93
2022/12/04 06:47:48;;;;;;;10.70;4.30;;;-0.50;99.90;;;;;;5126045;27;20210;-92
2022/12/04 06:50:20;;;;;;;4.67;3.63;;;-0.50;99.90;;;;;;5102797;28;20248;-93
2022/12/04 06:52:53;;;;;;;4.87;3.80;;;-0.50;99.90;;;;;;5118933;28;20252;-92
2022/12/04 06:55:26;;;;;;;6.13;3.63;;;-0.50;99.90;;;;;;5092177;28;20289;-93
2022/12/04 06:57:58;;;;;;;6.00;3.53;;;-0.50;99.90;;;;;;5108259;28;20294;-93
2022/12/04 07:00:30;;;;;;;4.57;3.40;;;-0.60;99.90;;;;;;5113511;28;20320;-91
2022/12/04 07:03:01;;;;;;;5.43;3.40;;;-0.60;99.90;;;;;;5105609;28;20819;-91
2022/12/04 07:05:37;;;;;;;6.87;3.50;;;-0.60;99.90;;;;;;5106678;28;20285;-91
2022/12/04 07:08:11;;;;;;;5.87;3.53;;;-0.60;99.90;;;;;;5124730;27;20213;-93
2022/12/04 07:10:48;;;;;;;7.27;3.70;;;-0.60;99.90;;;;;;5119637;28;20227;-92
2022/12/04 07:13:28;;;;;;;11.87;4.20;;;-0.60;99.90;;;;;;5097947;28;20225;-93
2022/12/04 07:16:05;;;;;;;6.97;3.33;;;-0.70;99.90;;;;;;4757213;27;9999716;-92
2022/12/04 07:18:38;;;;;;;8.30;4.23;;;-0.70;99.90;;;;;;5091838;28;20197;-91
2022/12/04 07:21:25;;;;;;;6.70;4.17;;;-0.70;99.90;;;;;;5112352;28;20215;-94
2022/12/04 07:24:04;;;;;;;7.53;4.50;;;-0.70;99.90;;;;;;5116827;27;20230;-95
2022/12/04 07:26:39;;;;;;;8.30;4.03;;;-0.70;99.90;;;;;;5114526;28;20200;-94
2022/12/04 07:29:13;;;;;;;6.17;4.30;;;-0.80;99.90;;;;;;5132895;27;20197;-95
2022/12/04 07:31:45;;;;;;;6.17;3.93;;;-0.80;99.90;;;;;;5133491;27;20261;-94
2022/12/04 07:34:17;;;;;;;8.40;4.50;;;-0.80;99.90;;;;;;5106806;28;20244;-92
2022/12/04 07:36:51;;;;;;;5.63;4.03;;;-0.80;99.90;;;;;;5120702;27;20194;-96
2022/12/04 07:39:24;;;;;;;6.33;5.00;;;-0.80;99.90;;;;;;5118028;28;20198;-95
2022/12/04 07:42:01;;;;;;;8.37;4.23;;;-0.90;99.90;;;;;;5117485;28;20207;-95
2022/12/04 07:44:34;;;;;;;7.90;4.40;;;-0.90;99.90;;;;;;5119640;28;20281;-94
2022/12/04 07:47:07;;;;;;;6.93;4.10;;;-0.90;99.90;;;;;;5114061;28;20342;-96
2022/12/04 07:49:39;;;;;;;7.33;4.50;;;-0.90;99.90;;;;;;5113937;28;20216;-93
2022/12/04 07:52:11;;;;;;;8.07;4.50;;;-0.90;99.90;;;;;;5115522;28;20236;-94
2022/12/04 07:54:44;;;;;;;7.33;4.17;;;-1.00;99.90;;;;;;5114885;27;20242;-94
2022/12/04 07:57:18;;;;;;;6.17;4.50;;;-1.00;99.90;;;;;;5106668;28;20303;-93
2022/12/04 07:59:54;;;;;;;6.57;4.33;;;-1.00;99.90;;;;;;5102708;28;20202;-94
2022/12/04 08:02:28;;;;;;;6.00;3.93;;;-1.00;99.90;;;;;;5108530;28;20214;-93
2022/12/04 08:05:03;;;;;;;11.23;3.97;;;-1.00;99.90;;;;;;5092791;28;20222;-92
2022/12/04 08:07:35;;;;;;;5.57;3.73;;;-1.00;99.90;;;;;;5113453;27;20224;-92
2022/12/04 08:10:09;;;;;;;4.83;3.63;;;-1.00;99.90;;;;;;5118351;28;20229;-92
2022/12/04 08:12:43;;;;;;;8.63;3.50;;;-1.00;99.90;;;;;;5117655;28;20214;-91
2022/12/04 08:15:15;;;;;;;8.30;3.90;;;-1.00;99.90;;;;;;5118184;28;20212;-93
2022/12/04 08:17:51;;;;;;;4.60;3.40;;;-1.00;99.90;;;;;;5109615;27;20248;-93
2022/12/04 08:20:24;;;;;;;3.50;2.97;;;-1.10;99.90;;;;;;5099343;28;20244;-92
2022/12/04 08:22:57;;;;;;;4.50;3.27;;;-1.10;99.90;;;;;;5103303;28;20222;-91
2022/12/04 08:25:29;;;;;;;6.53;3.60;;;-1.10;99.90;;;;;;5118575;27;20218;-93
2022/12/04 08:28:03;;;;;;;4.83;3.30;;;-1.10;99.90;;;;;;5108222;28;20206;-90
2022/12/04 08:30:35;;;;;;;4.63;3.00;;;-1.20;99.90;;;;;;5112928;28;20217;-91
2022/12/04 08:33:07;;;;;;;5.27;3.43;;;-1.20;99.90;;;;;;5117990;28;20202;-92
2022/12/04 08:35:40;;;;;;;5.33;3.33;;;-1.20;99.90;;;;;;5118928;28;20221;-92
2022/12/04 08:38:14;;;;;;;4.10;3.10;;;-1.20;99.90;;;;;;5105313;28;20219;-94
2022/12/04 08:40:46;;;;;;;4.33;3.40;;;-1.30;99.90;;;;;;5132195;28;20194;-94
2022/12/04 08:43:26;;;;;;;5.20;3.20;;;-1.30;99.90;;;;;;5130345;27;20587;-95
2022/12/04 08:46:01;;;;;;;5.63;3.47;;;-1.40;99.90;;;;;;5132865;27;20245;-96
2022/12/04 08:48:41;;;;;;;6.23;3.53;;;-1.40;99.90;;;;;;5133069;27;20193;-94
